createdAt,value
2022-12-05T00:01:29.171Z,3.27
2022-12-05T00:04:02.090Z,3.24
2022-12-05T00:06:34.062Z,3.21
2022-12-05T00:09:08.139Z,3.20
2022-12-05T00:11:40.776Z,3.19
2022-12-05T00:14:12.460Z,3.18
2022-12-05T00:16:44.233Z,3.23
2022-12-05T00:19:16.111Z,3.22
2022-12-05T00:21:46.404Z,3.22
2022-12-05T00:24:20.127Z,3.24
2022-12-05T00:26:50.276Z,3.21
2022-12-05T00:29:21.134Z,3.21
2022-12-05T00:31:51.281Z,3.20
2022-12-05T00:34:21.874Z,3.19
2022-12-05T00:36:52.008Z,3.17
2022-12-05T00:39:25.526Z,3.18
2022-12-05T00:41:55.559Z,3.17
2022-12-05T00:44:26.041Z,3.19
2022-12-05T00:46:56.419Z,3.11
2022-12-05T00:49:26.587Z,3.15
2022-12-05T00:51:57.187Z,3.16
2022-12-05T00:54:30.192Z,3.13
2022-12-05T00:57:00.262Z,3.08
2022-12-05T00:59:30.687Z,3.07
2022-12-05T01:02:01.172Z,3.17
2022-12-05T01:04:31.986Z,3.18
2022-12-05T01:07:03.496Z,3.13
2022-12-05T01:09:36.199Z,3.11
2022-12-05T01:12:06.312Z,3.10
2022-12-05T01:14:37.867Z,3.12
2022-12-05T01:17:08.220Z,3.14
2022-12-05T01:19:38.480Z,3.11
2022-12-05T01:22:08.653Z,3.12
2022-12-05T01:24:41.502Z,3.07
2022-12-05T01:27:11.732Z,3.05
2022-12-05T01:29:41.783Z,3.03
2022-12-05T01:32:12.102Z,3.00
2022-12-05T01:34:42.192Z,3.09
2022-12-05T01:37:12.195Z,3.07
2022-12-05T01:39:45.166Z,3.11
2022-12-05T01:42:16.002Z,3.07
2022-12-05T01:45:17.504Z,3.04
2022-12-05T01:47:48.159Z,3.04
2022-12-05T01:50:18.302Z,3.06
2022-12-05T01:52:49.045Z,3.06
2022-12-05T01:55:22.968Z,3.04
2022-12-05T01:57:52.762Z,3.06
2022-12-05T02:00:27.658Z,3.12
2022-12-05T02:03:00.789Z,3.14
2022-12-05T02:05:33.056Z,3.12
2022-12-05T02:08:07.643Z,3.11
2022-12-05T02:10:44.531Z,3.11
2022-12-05T02:13:40.808Z,3.10
2022-12-05T02:16:17.662Z,3.12
2022-12-05T02:19:01.647Z,3.13
2022-12-05T02:21:58.362Z,3.17
2022-12-05T02:24:54.197Z,3.15
2022-12-05T02:28:03.983Z,3.16
2022-12-05T02:30:43.368Z,3.15
2022-12-05T02:33:24.377Z,3.16
2022-12-05T02:36:00.112Z,3.18
2022-12-05T02:38:37.757Z,3.16
2022-12-05T02:41:18.164Z,3.19
2022-12-05T02:43:54.877Z,3.20
2022-12-05T02:46:32.210Z,3.20
2022-12-05T02:49:06.368Z,3.22
2022-12-05T02:51:41.122Z,3.21
2022-12-05T02:54:14.816Z,3.24
2022-12-05T02:56:48.284Z,3.23
2022-12-05T02:59:23.363Z,3.22
2022-12-05T03:01:56.872Z,3.23
2022-12-05T03:04:29.951Z,3.25
2022-12-05T03:07:03.510Z,3.25
2022-12-05T03:09:39.052Z,3.26
2022-12-05T03:12:15.465Z,3.27
2022-12-05T03:14:48.818Z,3.30
2022-12-05T03:17:27.882Z,3.28
2022-12-05T03:20:05.368Z,3.26
2022-12-05T03:22:41.305Z,3.28
2022-12-05T03:25:12.960Z,3.25
2022-12-05T03:27:50.433Z,3.26
2022-12-05T03:30:26.049Z,3.26
2022-12-05T03:33:05.999Z,3.27
2022-12-05T03:35:44.279Z,3.25
2022-12-05T03:38:17.599Z,3.31
2022-12-05T03:40:52.432Z,3.28
2022-12-05T03:43:29.397Z,3.25
2022-12-05T03:46:06.231Z,3.28
2022-12-05T03:48:43.839Z,3.27
2022-12-05T03:51:19.277Z,3.25
2022-12-05T03:53:55.010Z,3.26
2022-12-05T03:56:32.387Z,3.24
2022-12-05T03:59:06.830Z,3.24
2022-12-05T04:01:41.108Z,3.25
2022-12-05T04:04:19.839Z,3.26
2022-12-05T04:06:53.395Z,3.24
2022-12-05T04:09:29.306Z,3.29
2022-12-05T04:12:04.426Z,3.27
2022-12-05T04:14:38.670Z,3.30
2022-12-05T04:17:10.594Z,3.28
2022-12-05T04:20:02.256Z,3.29
2022-12-05T04:22:32.944Z,3.26
2022-12-05T04:25:18.326Z,3.31
2022-12-05T04:27:56.711Z,3.31
2022-12-05T04:30:29.999Z,3.32
2022-12-05T04:33:06.461Z,3.32
2022-12-05T04:35:45.097Z,3.33
2022-12-05T04:38:20.886Z,3.33
2022-12-05T04:40:58.236Z,3.31
2022-12-05T04:43:30.137Z,3.31
2022-12-05T04:46:03.691Z,3.33
2022-12-05T04:48:37.078Z,3.32
2022-12-05T04:51:15.901Z,3.34
2022-12-05T04:53:48.878Z,3.34
2022-12-05T04:56:21.976Z,3.26
2022-12-05T04:58:52.585Z,3.28
2022-12-05T05:01:27.220Z,3.33
2022-12-05T05:04:02.051Z,3.33
2022-12-05T05:06:35.504Z,3.29
2022-12-05T05:09:05.852Z,3.25
2022-12-05T05:11:37.882Z,3.25
2022-12-05T05:14:09.221Z,3.22
2022-12-05T05:16:41.281Z,3.23
2022-12-05T05:19:13.738Z,3.21
2022-12-05T05:21:46.812Z,3.18
2022-12-05T05:24:17.004Z,3.26
2022-12-05T05:26:53.930Z,3.24
2022-12-05T05:29:27.211Z,3.19
2022-12-05T05:31:57.708Z,3.15
2022-12-05T05:34:28.877Z,3.11
2022-12-05T05:37:01.871Z,3.03
2022-12-05T05:39:32.252Z,3.00
2022-12-05T05:42:02.285Z,2.96
2022-12-05T05:44:32.484Z,2.89
2022-12-05T05:47:02.704Z,2.87
2022-12-05T05:49:32.865Z,2.81
2022-12-05T05:52:05.733Z,2.79
2022-12-05T05:54:35.916Z,2.73
2022-12-05T05:57:06.230Z,2.75
2022-12-05T05:59:36.885Z,2.70
2022-12-05T06:02:06.983Z,2.64
2022-12-05T06:04:39.137Z,2.62
2022-12-05T06:07:12.130Z,2.56
2022-12-05T06:09:42.430Z,2.56
2022-12-05T06:12:13.053Z,2.54
2022-12-05T06:14:43.243Z,2.50
2022-12-05T06:17:13.677Z,2.61
2022-12-05T06:19:44.000Z,2.56
2022-12-05T06:22:16.920Z,2.54
2022-12-05T06:24:46.946Z,2.52
2022-12-05T06:27:16.980Z,2.53
2022-12-05T06:29:47.030Z,2.51
2022-12-05T06:32:17.233Z,2.53
2022-12-05T06:34:47.715Z,2.55
2022-12-05T06:37:20.557Z,2.51
2022-12-05T06:39:50.596Z,2.54
2022-12-05T06:42:22.498Z,2.55
2022-12-05T06:44:53.776Z,2.60
2022-12-05T06:47:25.013Z,2.49
2022-12-05T06:49:55.278Z,2.52
2022-12-05T06:52:28.904Z,2.51
2022-12-05T06:54:59.893Z,2.49
2022-12-05T06:57:32.184Z,2.45
2022-12-05T07:00:27.124Z,2.46
2022-12-05T07:02:54.585Z,2.46
2022-12-05T07:05:25.788Z,2.45
2022-12-05T07:07:58.860Z,2.47
2022-12-05T07:10:29.318Z,2.47
2022-12-05T07:12:59.621Z,2.49
2022-12-05T07:15:30.688Z,2.53
2022-12-05T07:18:00.807Z,2.60
2022-12-05T07:20:49.486Z,2.65
2022-12-05T07:23:24.628Z,2.69
2022-12-05T07:25:54.698Z,2.73
2022-12-05T07:28:24.935Z,2.81
2022-12-05T07:31:05.577Z,2.92
2022-12-05T07:33:36.282Z,2.97
2022-12-05T07:36:09.288Z,3.02
2022-12-05T07:38:42.889Z,3.10
2022-12-05T07:41:17.633Z,3.12
2022-12-05T07:43:47.988Z,3.22
2022-12-05T07:46:18.382Z,3.26
2022-12-05T07:48:48.876Z,3.35
2022-12-05T07:51:19.327Z,3.42
2022-12-05T07:53:52.620Z,3.47
2022-12-05T07:56:23.039Z,3.53
2022-12-05T07:58:54.497Z,3.58
2022-12-05T08:01:26.412Z,3.68
2022-12-05T08:03:58.364Z,3.72
2022-12-05T08:06:31.019Z,3.78
2022-12-05T08:09:03.921Z,3.89
2022-12-05T08:11:36.356Z,3.97
2022-12-05T08:14:08.217Z,3.99
2022-12-05T08:16:38.542Z,4.15
2022-12-05T08:19:11.487Z,4.19
2022-12-05T08:21:41.918Z,4.23
2022-12-05T08:24:15.510Z,4.25
2022-12-05T08:26:45.792Z,4.24
2022-12-05T08:29:17.746Z,4.27
2022-12-05T08:31:50.179Z,4.32
2022-12-05T08:34:23.410Z,4.39
2022-12-05T08:36:53.797Z,4.45
2022-12-05T08:39:27.622Z,4.45
2022-12-05T08:41:57.316Z,4.50
2022-12-05T08:44:27.937Z,4.55
2022-12-05T08:46:58.230Z,4.54
2022-12-05T08:49:28.788Z,4.55
2022-12-05T08:51:58.909Z,4.62
2022-12-05T08:54:31.909Z,4.63
2022-12-05T08:57:02.300Z,4.67
2022-12-05T08:59:32.577Z,4.67
2022-12-05T09:02:02.594Z,4.82
2022-12-05T09:04:32.730Z,4.95
2022-12-05T09:07:04.883Z,5.06
2022-12-05T09:09:38.062Z,5.30
2022-12-05T09:12:09.121Z,5.43
2022-12-05T09:14:39.195Z,5.40
2022-12-05T09:17:09.428Z,5.25
2022-12-05T09:19:39.582Z,5.18
2022-12-05T09:22:09.909Z,5.17
2022-12-05T09:24:43.007Z,5.27
2022-12-05T09:27:13.240Z,5.19
2022-12-05T09:29:43.369Z,5.23
2022-12-05T09:32:14.381Z,5.39
2022-12-05T09:34:44.790Z,5.44
2022-12-05T09:37:37.570Z,5.50
2022-12-05T09:40:09.957Z,5.63
2022-12-05T09:42:46.986Z,5.77
2022-12-05T09:45:26.811Z,5.74
2022-12-05T09:48:02.408Z,5.86
2022-12-05T09:50:34.950Z,5.88
2022-12-05T09:53:10.431Z,5.90
2022-12-05T09:55:51.574Z,5.91
2022-12-05T09:58:44.067Z,5.80
2022-12-05T10:01:30.622Z,5.77
2022-12-05T10:04:29.785Z,5.90
2022-12-05T10:07:10.386Z,5.99
2022-12-05T10:09:56.054Z,6.02
2022-12-05T10:12:46.386Z,6.06
2022-12-05T10:15:21.202Z,6.02
2022-12-05T10:17:59.669Z,6.02
2022-12-05T10:20:35.781Z,5.93
2022-12-05T10:23:18.720Z,5.89
2022-12-05T10:26:03.085Z,5.83
2022-12-05T10:28:40.717Z,6.01
2022-12-05T10:31:16.493Z,6.17
2022-12-05T10:33:52.259Z,6.16
2022-12-05T10:36:22.340Z,6.17
2022-12-05T10:38:53.154Z,6.08
2022-12-05T10:41:23.451Z,6.17
2022-12-05T10:43:56.995Z,6.26
2022-12-05T10:46:27.618Z,6.25
2022-12-05T10:48:57.913Z,6.32
2022-12-05T10:51:35.770Z,6.40
2022-12-05T10:54:19.558Z,6.40
2022-12-05T10:56:51.208Z,6.45
2022-12-05T10:59:26.211Z,6.40
2022-12-05T11:01:59.794Z,6.25
2022-12-05T11:04:34.737Z,6.37
2022-12-05T11:07:07.187Z,6.46
2022-12-05T11:09:40.176Z,6.34
2022-12-05T11:12:20.066Z,6.43
2022-12-05T11:15:06.204Z,6.49
2022-12-05T11:17:38.890Z,6.50
2022-12-05T11:20:40.368Z,6.59
2022-12-05T11:23:29.526Z,6.63
2022-12-05T11:26:01.776Z,6.64
2022-12-05T11:28:39.923Z,6.75
2022-12-05T11:31:28.215Z,6.61
2022-12-05T11:34:08.949Z,6.58
2022-12-05T11:36:44.374Z,6.77
2022-12-05T11:39:16.153Z,6.88
2022-12-05T11:42:03.340Z,6.83
2022-12-05T11:44:57.388Z,6.93
2022-12-05T11:47:48.462Z,6.86
2022-12-05T11:50:38.530Z,6.94
2022-12-05T11:53:31.222Z,7.07
2022-12-05T11:56:13.721Z,6.92
2022-12-05T11:58:59.450Z,7.02
2022-12-05T12:01:43.192Z,6.93
2022-12-05T12:04:38.374Z,6.98
2022-12-05T12:07:25.254Z,7.03
2022-12-05T12:10:09.985Z,7.07
2022-12-05T12:12:49.258Z,7.00
2022-12-05T12:15:45.915Z,7.01
2022-12-05T12:18:31.104Z,7.05
2022-12-05T12:21:19.529Z,7.17
2022-12-05T12:24:07.576Z,7.12
2022-12-05T12:26:53.512Z,6.99
2022-12-05T12:29:35.491Z,7.00
2022-12-05T12:32:22.540Z,7.10
2022-12-05T12:35:06.165Z,7.07
2022-12-05T12:37:52.156Z,6.92
2022-12-05T12:40:29.863Z,6.85
2022-12-05T12:43:21.124Z,6.87
2022-12-05T12:46:15.733Z,6.93
2022-12-05T12:49:11.785Z,6.87
2022-12-05T12:51:48.952Z,6.98
2022-12-05T12:57:44.265Z,6.81
2022-12-05T13:00:26.152Z,6.86
2022-12-05T13:03:04.869Z,6.93
2022-12-05T13:05:40.023Z,6.93
2022-12-05T13:08:19.866Z,6.92
2022-12-05T13:10:53.422Z,6.99
2022-12-05T13:13:27.880Z,6.91
2022-12-05T13:16:02.688Z,6.96
2022-12-05T13:18:32.934Z,6.93
2022-12-05T13:21:07.307Z,6.96
2022-12-05T13:23:45.184Z,6.98
2022-12-05T13:26:19.100Z,7.03
2022-12-05T13:28:56.290Z,7.04
2022-12-05T13:31:41.827Z,6.96
2022-12-05T13:34:55.034Z,6.99
2022-12-05T13:37:40.881Z,6.89
2022-12-05T13:40:37.888Z,6.85
2022-12-05T13:43:11.786Z,6.82
2022-12-05T13:45:42.590Z,6.82
2022-12-05T13:48:23.811Z,6.83
2022-12-05T13:50:59.602Z,6.84
2022-12-05T13:53:37.929Z,6.81
2022-12-05T13:56:10.631Z,6.78
2022-12-05T13:58:48.463Z,6.77
2022-12-05T14:01:53.836Z,6.71
2022-12-05T14:04:54.009Z,6.65
2022-12-05T14:07:44.223Z,6.67
2022-12-05T14:10:17.295Z,6.61
2022-12-05T14:12:54.919Z,6.60
2022-12-05T14:15:43.329Z,6.61
2022-12-05T14:18:18.998Z,6.63
2022-12-05T14:21:05.240Z,6.60
2022-12-05T14:23:57.176Z,6.55
2022-12-05T14:26:44.493Z,6.57
2022-12-05T14:29:38.414Z,6.48
2022-12-05T14:32:22.923Z,6.39
2022-12-05T14:35:00.182Z,6.40
2022-12-05T14:37:37.294Z,6.32
2022-12-05T14:40:23.860Z,6.32
2022-12-05T14:42:58.102Z,6.30
2022-12-05T14:45:37.337Z,6.30
2022-12-05T14:48:29.655Z,6.26
2022-12-05T14:51:01.505Z,6.22
2022-12-05T14:53:40.044Z,6.19
2022-12-05T14:56:30.363Z,6.16
2022-12-05T14:59:07.956Z,6.14
2022-12-05T15:01:46.760Z,6.11
2022-12-05T15:04:30.447Z,6.13
2022-12-05T15:07:05.994Z,6.08
2022-12-05T15:09:50.004Z,6.08
2022-12-05T15:12:23.878Z,6.05
2022-12-05T15:15:05.974Z,6.10
2022-12-05T15:17:43.238Z,6.10
2022-12-05T15:20:23.059Z,6.02
2022-12-05T15:22:53.332Z,6.03
2022-12-05T15:25:30.057Z,6.05
2022-12-05T15:28:04.861Z,6.00
2022-12-05T15:30:42.501Z,6.04
2022-12-05T15:33:15.812Z,5.97
2022-12-05T15:35:51.388Z,5.93
2022-12-05T15:38:27.965Z,5.93
2022-12-05T15:40:58.497Z,5.90
2022-12-05T15:43:34.813Z,5.90
2022-12-05T15:46:24.504Z,5.91
2022-12-05T15:48:55.840Z,5.94
2022-12-05T15:51:34.922Z,6.00
2022-12-05T15:54:11.921Z,5.92
2022-12-05T15:56:47.122Z,5.84
2022-12-05T15:59:23.956Z,5.84
2022-12-05T16:01:57.439Z,5.86
2022-12-05T16:04:34.465Z,5.92
2022-12-05T16:07:11.232Z,5.84
2022-12-05T16:09:45.604Z,5.81
2022-12-05T16:12:25.098Z,5.72
2022-12-05T16:15:00.454Z,5.68
2022-12-05T16:17:33.660Z,5.64
2022-12-05T16:20:26.965Z,5.57
2022-12-05T16:23:02.978Z,5.48
2022-12-05T16:25:36.463Z,5.46
2022-12-05T16:28:19.244Z,5.49
2022-12-05T16:31:01.475Z,5.47
2022-12-05T16:33:36.545Z,5.47
2022-12-05T16:36:12.878Z,5.40
2022-12-05T16:38:47.029Z,5.41
2022-12-05T16:41:19.285Z,5.39
2022-12-05T16:43:49.952Z,5.36
2022-12-05T16:46:50.909Z,5.35
2022-12-05T16:49:35.444Z,5.31
2022-12-05T16:52:15.268Z,5.28
2022-12-05T16:54:50.724Z,5.23
2022-12-05T16:57:20.954Z,5.15
2022-12-05T16:59:51.902Z,5.09
2022-12-05T17:02:22.379Z,5.10
2022-12-05T17:04:52.964Z,5.08
2022-12-05T17:07:23.345Z,5.08
2022-12-05T17:09:56.202Z,5.04
2022-12-05T17:12:28.471Z,5.07
2022-12-05T17:14:59.188Z,5.12
2022-12-05T17:17:29.684Z,5.08
2022-12-05T17:19:59.702Z,5.06
2022-12-05T17:22:29.662Z,5.04
2022-12-05T17:25:02.981Z,5.11
2022-12-05T17:27:33.711Z,5.09
2022-12-05T17:30:04.054Z,5.12
2022-12-05T17:32:34.420Z,5.19
2022-12-05T17:35:06.954Z,5.19
2022-12-05T17:37:37.322Z,5.15
2022-12-05T17:40:13.419Z,5.18
2022-12-05T17:42:44.215Z,5.19
2022-12-05T17:45:17.568Z,5.20
2022-12-05T17:47:47.855Z,5.23
2022-12-05T17:50:21.305Z,5.24
2022-12-05T17:52:51.786Z,5.26
2022-12-05T17:55:28.415Z,5.28
2022-12-05T17:57:59.109Z,5.30
2022-12-05T18:00:30.108Z,5.26
2022-12-05T18:03:00.530Z,5.24
2022-12-05T18:05:30.795Z,5.23
2022-12-05T18:08:01.364Z,5.18
2022-12-05T18:10:34.614Z,5.13
2022-12-05T18:13:05.056Z,5.12
2022-12-05T18:15:42.296Z,5.06
2022-12-05T18:18:17.125Z,5.00
2022-12-05T18:20:47.878Z,4.97
2022-12-05T18:23:18.154Z,4.90
2022-12-05T18:26:00.897Z,4.86
2022-12-05T18:28:32.334Z,4.91
2022-12-05T18:31:14.947Z,4.89
2022-12-05T18:33:46.388Z,4.99
2022-12-05T18:36:18.354Z,5.00
2022-12-05T18:38:53.898Z,5.00
2022-12-05T18:41:28.664Z,5.01
2022-12-05T18:43:59.369Z,5.03
2022-12-05T18:46:29.585Z,5.09
2022-12-05T18:49:03.317Z,5.13
2022-12-05T18:51:33.834Z,5.19
2022-12-05T18:54:04.172Z,5.21
2022-12-05T18:56:40.253Z,5.25
2022-12-05T18:59:14.915Z,5.24
2022-12-05T19:01:46.127Z,5.22
2022-12-05T19:04:18.709Z,5.22
2022-12-05T19:06:52.700Z,5.21
2022-12-05T19:09:24.972Z,5.19
2022-12-05T19:12:00.876Z,5.12
2022-12-05T19:14:33.662Z,5.08
2022-12-05T19:17:05.659Z,5.02
2022-12-05T19:19:35.781Z,4.98
2022-12-05T19:22:05.968Z,5.01
2022-12-05T19:24:37.176Z,4.94
2022-12-05T19:27:11.187Z,4.89
2022-12-05T19:29:42.494Z,4.84
2022-12-05T19:32:12.975Z,4.78
2022-12-05T19:34:44.239Z,4.77
2022-12-05T19:37:15.524Z,4.74
2022-12-05T19:39:46.754Z,4.67
2022-12-05T19:42:20.142Z,4.54
2022-12-05T19:44:51.199Z,4.50
2022-12-05T19:47:21.599Z,4.50
2022-12-05T19:49:52.932Z,4.54
2022-12-05T19:52:23.371Z,4.48
2022-12-05T19:54:53.771Z,4.40
2022-12-05T19:57:31.101Z,4.33
2022-12-05T20:00:01.737Z,4.32
2022-12-05T20:02:45.532Z,4.38
2022-12-05T20:05:16.306Z,4.44
2022-12-05T20:07:46.621Z,4.56
2022-12-05T20:10:18.012Z,4.61
2022-12-05T20:12:50.951Z,4.62
2022-12-05T20:15:22.753Z,4.59
2022-12-05T20:17:53.914Z,4.56
2022-12-05T20:20:24.102Z,4.53
2022-12-05T20:22:57.384Z,4.51
2022-12-05T20:25:27.392Z,4.48
2022-12-05T20:28:00.612Z,4.50
2022-12-05T20:30:31.623Z,4.51
2022-12-05T20:33:03.011Z,4.52
2022-12-05T20:35:33.164Z,4.54
2022-12-05T20:38:03.318Z,4.52
2022-12-05T20:40:33.693Z,4.54
2022-12-05T20:43:06.991Z,4.57
2022-12-05T20:45:37.926Z,4.61
2022-12-05T20:48:08.716Z,4.64
2022-12-05T20:50:38.982Z,4.68
2022-12-05T20:53:09.196Z,4.71
2022-12-05T20:55:39.491Z,4.70
2022-12-05T20:58:12.291Z,4.69
2022-12-05T21:00:44.085Z,4.68
2022-12-05T21:03:17.429Z,4.66
2022-12-05T21:05:47.595Z,4.60
2022-12-05T21:08:17.941Z,4.56
2022-12-05T21:10:48.319Z,4.56
2022-12-05T21:13:22.390Z,4.48
2022-12-05T21:15:52.938Z,4.44
2022-12-05T21:18:23.019Z,4.44
2022-12-05T21:20:59.773Z,4.42
2022-12-05T21:23:30.198Z,4.39
2022-12-05T21:26:05.136Z,4.39
2022-12-05T21:28:38.337Z,4.39
2022-12-05T21:31:11.858Z,4.43
2022-12-05T21:33:43.302Z,4.43
2022-12-05T21:36:13.599Z,4.46
2022-12-05T21:38:43.826Z,4.47
2022-12-05T21:41:14.809Z,4.43
2022-12-05T21:43:53.750Z,4.43
2022-12-05T21:46:25.379Z,4.44
2022-12-05T21:48:55.733Z,4.44
2022-12-05T21:51:27.316Z,4.47
2022-12-05T21:53:57.369Z,4.47
2022-12-05T21:56:28.589Z,4.48
2022-12-05T21:59:01.214Z,4.52
2022-12-05T22:01:31.643Z,4.50
2022-12-05T22:04:02.461Z,4.49
2022-12-05T22:06:34.088Z,4.50
2022-12-05T22:09:04.618Z,4.51
2022-12-05T22:11:34.778Z,4.50
2022-12-05T22:14:07.559Z,4.52
2022-12-05T22:16:38.352Z,4.51
2022-12-05T22:19:08.509Z,4.51
2022-12-05T22:21:38.635Z,4.52
2022-12-05T22:24:10.583Z,4.49
2022-12-05T22:26:40.842Z,4.50
2022-12-05T22:29:13.878Z,4.49
2022-12-05T22:31:44.195Z,4.47
2022-12-05T22:34:14.215Z,4.46
2022-12-05T22:36:44.404Z,4.46
2022-12-05T22:39:15.238Z,4.46
2022-12-05T22:41:45.219Z,4.45
2022-12-05T22:44:17.990Z,4.46
2022-12-05T22:46:48.158Z,4.45
2022-12-05T22:49:23.739Z,4.49
2022-12-05T22:51:55.331Z,4.48
2022-12-05T22:54:30.037Z,4.52
2022-12-05T22:57:00.421Z,4.51
2022-12-05T22:59:33.569Z,4.56
2022-12-05T23:02:03.678Z,4.54
2022-12-05T23:04:33.890Z,4.52
2022-12-05T23:07:03.962Z,4.50
2022-12-05T23:09:34.183Z,4.50
2022-12-05T23:12:04.975Z,4.49
2022-12-05T23:14:38.791Z,4.50
2022-12-05T23:17:08.521Z,4.52
2022-12-05T23:19:38.595Z,4.46
2022-12-05T23:22:09.600Z,4.43
2022-12-05T23:24:39.692Z,4.42
2022-12-05T23:27:09.908Z,4.42
2022-12-05T23:29:42.748Z,4.42
2022-12-05T23:32:16.087Z,4.40
2022-12-05T23:34:46.705Z,4.41
2022-12-05T23:37:16.829Z,4.35
2022-12-05T23:39:47.001Z,4.35
2022-12-05T23:42:17.146Z,4.33
2022-12-05T23:44:49.982Z,4.33
2022-12-05T23:47:20.411Z,4.33
2022-12-05T23:49:50.757Z,4.33
2022-12-05T23:52:20.840Z,4.29
2022-12-05T23:54:51.007Z,4.27
2022-12-05T23:57:21.449Z,4.25
2022-12-05T23:59:54.481Z,4.25
